sensor_id;sensor_type;location;lat;lon;timestamp;P1;durP1;ratioP1;P2;durP2;ratioP2
51852;SDS011;37894;53.172;6.598;2024-02-16T00:00:23;10.65;;;4.60;;
51852;SDS011;37894;53.172;6.598;2024-02-16T00:02:49;6.03;;;3.63;;
51852;SDS011;37894;53.172;6.598;2024-02-16T00:05:15;7.25;;;3.70;;
51852;SDS011;37894;53.172;6.598;2024-02-16T00:07:41;6.93;;;3.30;;
51852;SDS011;37894;53.172;6.598;2024-02-16T00:10:08;6.32;;;3.33;;
51852;SDS011;37894;53.172;6.598;2024-02-16T00:12:34;9.35;;;3.35;;
51852;SDS011;37894;53.172;6.598;2024-02-16T00:15:00;8.57;;;3.42;;
51852;SDS011;37894;53.172;6.598;2024-02-16T00:17:27;10.27;;;4.15;;
51852;SDS011;37894;53.172;6.598;2024-02-16T00:19:57;6.20;;;3.50;;
51852;SDS011;37894;53.172;6.598;2024-02-16T00:22:23;7.80;;;3.20;;
51852;SDS011;37894;53.172;6.598;2024-02-16T00:24:49;6.70;;;3.42;;
51852;SDS011;37894;53.172;6.598;2024-02-16T00:27:15;5.47;;;3.47;;
51852;SDS011;37894;53.172;6.598;2024-02-16T00:29:41;7.18;;;3.00;;
51852;SDS011;37894;53.172;6.598;2024-02-16T00:32:07;6.10;;;3.10;;
51852;SDS011;37894;53.172;6.598;2024-02-16T00:34:34;8.38;;;3.17;;
51852;SDS011;37894;53.172;6.598;2024-02-16T00:37:01;14.00;;;3.15;;
51852;SDS011;37894;53.172;6.598;2024-02-16T00:39:29;10.88;;;3.35;;
51852;SDS011;37894;53.172;6.598;2024-02-16T00:41:54;6.43;;;3.30;;
51852;SDS011;37894;53.172;6.598;2024-02-16T00:44:20;10.10;;;3.53;;
51852;SDS011;37894;53.172;6.598;2024-02-16T00:46:47;6.38;;;2.83;;
51852;SDS011;37894;53.172;6.598;2024-02-16T00:49:13;7.03;;;3.30;;
51852;SDS011;37894;53.172;6.598;2024-02-16T00:51:40;9.15;;;3.33;;
51852;SDS011;37894;53.172;6.598;2024-02-16T00:54:06;8.80;;;3.50;;
51852;SDS011;37894;53.172;6.598;2024-02-16T00:56:32;6.60;;;3.60;;
51852;SDS011;37894;53.172;6.598;2024-02-16T00:58:58;11.10;;;3.30;;
51852;SDS011;37894;53.172;6.598;2024-02-16T01:01:24;6.10;;;2.90;;
51852;SDS011;37894;53.172;6.598;2024-02-16T01:03:51;5.18;;;3.40;;
51852;SDS011;37894;53.172;6.598;2024-02-16T01:06:18;6.60;;;3.17;;
51852;SDS011;37894;53.172;6.598;2024-02-16T01:08:44;6.70;;;3.40;;
51852;SDS011;37894;53.172;6.598;2024-02-16T01:11:11;6.07;;;2.92;;
51852;SDS011;37894;53.172;6.598;2024-02-16T01:13:38;8.32;;;3.50;;
51852;SDS011;37894;53.172;6.598;2024-02-16T01:16:04;6.75;;;3.00;;
51852;SDS011;37894;53.172;6.598;2024-02-16T01:18:30;6.28;;;3.08;;
51852;SDS011;37894;53.172;6.598;2024-02-16T01:20:58;6.55;;;3.55;;
51852;SDS011;37894;53.172;6.598;2024-02-16T01:23:23;5.85;;;3.30;;
51852;SDS011;37894;53.172;6.598;2024-02-16T01:25:50;10.80;;;5.22;;
51852;SDS011;37894;53.172;6.598;2024-02-16T01:28:15;7.20;;;3.20;;
51852;SDS011;37894;53.172;6.598;2024-02-16T01:30:41;6.78;;;2.90;;
51852;SDS011;37894;53.172;6.598;2024-02-16T01:33:07;8.38;;;3.13;;
51852;SDS011;37894;53.172;6.598;2024-02-16T01:35:33;6.97;;;3.13;;
51852;SDS011;37894;53.172;6.598;2024-02-16T01:37:59;8.68;;;3.10;;
51852;SDS011;37894;53.172;6.598;2024-02-16T01:40:26;6.05;;;3.38;;
51852;SDS011;37894;53.172;6.598;2024-02-16T01:42:53;6.78;;;3.15;;
51852;SDS011;37894;53.172;6.598;2024-02-16T01:45:19;7.00;;;3.00;;
51852;SDS011;37894;53.172;6.598;2024-02-16T01:47:45;10.20;;;3.17;;
51852;SDS011;37894;53.172;6.598;2024-02-16T01:50:15;5.65;;;2.80;;
51852;SDS011;37894;53.172;6.598;2024-02-16T01:52:42;7.28;;;3.15;;
51852;SDS011;37894;53.172;6.598;2024-02-16T01:55:09;15.80;;;3.58;;
51852;SDS011;37894;53.172;6.598;2024-02-16T01:57:45;8.95;;;3.03;;
51852;SDS011;37894;53.172;6.598;2024-02-16T02:00:12;6.72;;;3.40;;
51852;SDS011;37894;53.172;6.598;2024-02-16T02:02:40;6.28;;;3.10;;
51852;SDS011;37894;53.172;6.598;2024-02-16T02:05:08;7.93;;;3.03;;
51852;SDS011;37894;53.172;6.598;2024-02-16T02:07:34;5.57;;;2.65;;
51852;SDS011;37894;53.172;6.598;2024-02-16T02:10:00;8.57;;;3.10;;
51852;SDS011;37894;53.172;6.598;2024-02-16T02:12:26;6.00;;;3.22;;
51852;SDS011;37894;53.172;6.598;2024-02-16T02:14:52;5.80;;;3.05;;
51852;SDS011;37894;53.172;6.598;2024-02-16T02:17:18;6.55;;;2.90;;
51852;SDS011;37894;53.172;6.598;2024-02-16T02:19:47;7.20;;;3.25;;
51852;SDS011;37894;53.172;6.598;2024-02-16T02:22:19;7.22;;;3.05;;
51852;SDS011;37894;53.172;6.598;2024-02-16T02:24:46;7.53;;;3.10;;
51852;SDS011;37894;53.172;6.598;2024-02-16T02:27:14;7.43;;;3.33;;
51852;SDS011;37894;53.172;6.598;2024-02-16T02:29:40;8.20;;;3.38;;
51852;SDS011;37894;53.172;6.598;2024-02-16T02:32:06;6.25;;;2.97;;
51852;SDS011;37894;53.172;6.598;2024-02-16T02:34:32;7.10;;;3.13;;
51852;SDS011;37894;53.172;6.598;2024-02-16T02:36:58;7.88;;;3.13;;
51852;SDS011;37894;53.172;6.598;2024-02-16T02:39:24;11.63;;;3.20;;
51852;SDS011;37894;53.172;6.598;2024-02-16T02:41:50;7.97;;;3.20;;
51852;SDS011;37894;53.172;6.598;2024-02-16T02:44:17;5.70;;;2.72;;
51852;SDS011;37894;53.172;6.598;2024-02-16T02:46:44;6.57;;;2.80;;
51852;SDS011;37894;53.172;6.598;2024-02-16T02:49:10;8.93;;;3.40;;
51852;SDS011;37894;53.172;6.598;2024-02-16T02:51:36;6.50;;;2.70;;
51852;SDS011;37894;53.172;6.598;2024-02-16T02:54:03;7.15;;;3.15;;
51852;SDS011;37894;53.172;6.598;2024-02-16T02:56:28;9.27;;;3.85;;
51852;SDS011;37894;53.172;6.598;2024-02-16T02:58:54;6.28;;;2.95;;
51852;SDS011;37894;53.172;6.598;2024-02-16T03:01:20;8.07;;;3.38;;
51852;SDS011;37894;53.172;6.598;2024-02-16T03:03:47;6.82;;;3.47;;
51852;SDS011;37894;53.172;6.598;2024-02-16T03:06:17;6.65;;;3.30;;
51852;SDS011;37894;53.172;6.598;2024-02-16T03:08:43;7.95;;;3.35;;
51852;SDS011;37894;53.172;6.598;2024-02-16T03:11:09;9.63;;;2.90;;
51852;SDS011;37894;53.172;6.598;2024-02-16T03:13:35;9.27;;;3.10;;
51852;SDS011;37894;53.172;6.598;2024-02-16T03:16:02;8.73;;;3.15;;
51852;SDS011;37894;53.172;6.598;2024-02-16T03:18:32;7.88;;;3.28;;
51852;SDS011;37894;53.172;6.598;2024-02-16T03:20:59;6.57;;;3.42;;
51852;SDS011;37894;53.172;6.598;2024-02-16T03:23:25;8.23;;;2.97;;
51852;SDS011;37894;53.172;6.598;2024-02-16T03:25:50;8.70;;;3.00;;
51852;SDS011;37894;53.172;6.598;2024-02-16T03:28:16;7.72;;;3.17;;
51852;SDS011;37894;53.172;6.598;2024-02-16T03:30:42;9.52;;;3.50;;
51852;SDS011;37894;53.172;6.598;2024-02-16T03:33:08;5.97;;;3.38;;
51852;SDS011;37894;53.172;6.598;2024-02-16T03:35:35;7.75;;;3.35;;
51852;SDS011;37894;53.172;6.598;2024-02-16T03:38:01;7.25;;;3.03;;
51852;SDS011;37894;53.172;6.598;2024-02-16T03:40:30;8.68;;;3.40;;
51852;SDS011;37894;53.172;6.598;2024-02-16T03:42:56;7.70;;;2.70;;
51852;SDS011;37894;53.172;6.598;2024-02-16T03:45:23;8.10;;;3.05;;
51852;SDS011;37894;53.172;6.598;2024-02-16T03:47:49;6.78;;;3.08;;
51852;SDS011;37894;53.172;6.598;2024-02-16T03:50:17;7.95;;;3.97;;
51852;SDS011;37894;53.172;6.598;2024-02-16T03:52:43;6.30;;;3.20;;
51852;SDS011;37894;53.172;6.598;2024-02-16T03:55:09;8.85;;;3.53;;
51852;SDS011;37894;53.172;6.598;2024-02-16T03:57:35;6.40;;;3.05;;
51852;SDS011;37894;53.172;6.598;2024-02-16T04:00:01;7.22;;;3.80;;
51852;SDS011;37894;53.172;6.598;2024-02-16T04:02:27;8.63;;;3.80;;
51852;SDS011;37894;53.172;6.598;2024-02-16T04:04:53;7.32;;;3.55;;
51852;SDS011;37894;53.172;6.598;2024-02-16T04:07:19;11.10;;;3.88;;
51852;SDS011;37894;53.172;6.598;2024-02-16T04:09:45;11.63;;;3.15;;
51852;SDS011;37894;53.172;6.598;2024-02-16T04:12:10;8.25;;;3.17;;
51852;SDS011;37894;53.172;6.598;2024-02-16T04:14:36;8.20;;;3.30;;
51852;SDS011;37894;53.172;6.598;2024-02-16T04:17:02;8.57;;;3.60;;
51852;SDS011;37894;53.172;6.598;2024-02-16T04:19:29;9.18;;;3.58;;
51852;SDS011;37894;53.172;6.598;2024-02-16T04:21:55;9.07;;;3.60;;
51852;SDS011;37894;53.172;6.598;2024-02-16T04:24:20;5.53;;;3.17;;
51852;SDS011;37894;53.172;6.598;2024-02-16T04:26:47;7.80;;;3.35;;
51852;SDS011;37894;53.172;6.598;2024-02-16T04:29:13;8.27;;;3.55;;
51852;SDS011;37894;53.172;6.598;2024-02-16T04:31:40;5.95;;;3.40;;
51852;SDS011;37894;53.172;6.598;2024-02-16T04:34:07;9.23;;;3.42;;
51852;SDS011;37894;53.172;6.598;2024-02-16T04:36:34;6.13;;;2.85;;
51852;SDS011;37894;53.172;6.598;2024-02-16T04:39:00;5.68;;;3.35;;
51852;SDS011;37894;53.172;6.598;2024-02-16T04:41:26;6.18;;;3.03;;
51852;SDS011;37894;53.172;6.598;2024-02-16T04:43:52;7.47;;;3.20;;
51852;SDS011;37894;53.172;6.598;2024-02-16T04:46:18;8.60;;;3.30;;
51852;SDS011;37894;53.172;6.598;2024-02-16T04:48:44;5.50;;;2.90;;
51852;SDS011;37894;53.172;6.598;2024-02-16T04:51:10;8.35;;;3.92;;
51852;SDS011;37894;53.172;6.598;2024-02-16T04:53:37;7.20;;;3.50;;
51852;SDS011;37894;53.172;6.598;2024-02-16T04:56:02;5.70;;;2.90;;
51852;SDS011;37894;53.172;6.598;2024-02-16T04:58:30;8.30;;;3.20;;
51852;SDS011;37894;53.172;6.598;2024-02-16T05:00:56;15.40;;;3.45;;
51852;SDS011;37894;53.172;6.598;2024-02-16T05:03:22;5.20;;;2.97;;
51852;SDS011;37894;53.172;6.598;2024-02-16T05:05:47;6.60;;;3.30;;
51852;SDS011;37894;53.172;6.598;2024-02-16T05:08:13;7.78;;;3.00;;
51852;SDS011;37894;53.172;6.598;2024-02-16T05:10:39;6.60;;;3.13;;
51852;SDS011;37894;53.172;6.598;2024-02-16T05:13:05;7.05;;;2.95;;
51852;SDS011;37894;53.172;6.598;2024-02-16T05:15:31;8.27;;;2.92;;
51852;SDS011;37894;53.172;6.598;2024-02-16T05:17:57;9.10;;;3.63;;
51852;SDS011;37894;53.172;6.598;2024-02-16T05:20:23;10.55;;;3.75;;
51852;SDS011;37894;53.172;6.598;2024-02-16T05:22:49;6.85;;;3.53;;
51852;SDS011;37894;53.172;6.598;2024-02-16T05:25:18;7.63;;;3.28;;
51852;SDS011;37894;53.172;6.598;2024-02-16T05:27:44;5.60;;;3.30;;
51852;SDS011;37894;53.172;6.598;2024-02-16T05:30:11;8.32;;;3.30;;
51852;SDS011;37894;53.172;6.598;2024-02-16T05:32:41;8.07;;;3.50;;
51852;SDS011;37894;53.172;6.598;2024-02-16T05:35:07;6.43;;;3.45;;
51852;SDS011;37894;53.172;6.598;2024-02-16T05:37:37;5.72;;;3.25;;
51852;SDS011;37894;53.172;6.598;2024-02-16T05:40:07;6.60;;;3.28;;
51852;SDS011;37894;53.172;6.598;2024-02-16T05:42:55;6.45;;;3.00;;
51852;SDS011;37894;53.172;6.598;2024-02-16T05:45:23;5.50;;;3.17;;
51852;SDS011;37894;53.172;6.598;2024-02-16T05:47:50;7.38;;;3.17;;
51852;SDS011;37894;53.172;6.598;2024-02-16T05:50:16;5.95;;;3.20;;
51852;SDS011;37894;53.172;6.598;2024-02-16T05:52:42;6.35;;;3.25;;
51852;SDS011;37894;53.172;6.598;2024-02-16T05:55:09;5.70;;;2.75;;
51852;SDS011;37894;53.172;6.598;2024-02-16T05:57:36;6.00;;;3.17;;
51852;SDS011;37894;53.172;6.598;2024-02-16T06:00:05;5.53;;;3.28;;
51852;SDS011;37894;53.172;6.598;2024-02-16T06:02:33;6.55;;;3.17;;
51852;SDS011;37894;53.172;6.598;2024-02-16T06:04:59;6.97;;;2.95;;
51852;SDS011;37894;53.172;6.598;2024-02-16T06:07:26;5.40;;;2.90;;
51852;SDS011;37894;53.172;6.598;2024-02-16T06:09:51;5.60;;;3.40;;
51852;SDS011;37894;53.172;6.598;2024-02-16T06:12:19;5.47;;;3.10;;
51852;SDS011;37894;53.172;6.598;2024-02-16T06:14:45;6.80;;;3.65;;
51852;SDS011;37894;53.172;6.598;2024-02-16T06:17:13;6.13;;;3.65;;
51852;SDS011;37894;53.172;6.598;2024-02-16T06:19:40;7.18;;;3.95;;
51852;SDS011;37894;53.172;6.598;2024-02-16T06:22:07;6.82;;;3.30;;
51852;SDS011;37894;53.172;6.598;2024-02-16T06:24:33;8.70;;;3.92;;
51852;SDS011;37894;53.172;6.598;2024-02-16T06:27:00;9.38;;;3.15;;
51852;SDS011;37894;53.172;6.598;2024-02-16T06:29:25;6.55;;;3.53;;
51852;SDS011;37894;53.172;6.598;2024-02-16T06:31:51;7.38;;;3.83;;
51852;SDS011;37894;53.172;6.598;2024-02-16T06:34:18;6.53;;;3.30;;
51852;SDS011;37894;53.172;6.598;2024-02-16T06:36:44;5.07;;;3.05;;
51852;SDS011;37894;53.172;6.598;2024-02-16T06:39:10;7.20;;;3.42;;
51852;SDS011;37894;53.172;6.598;2024-02-16T06:41:36;7.72;;;3.10;;
51852;SDS011;37894;53.172;6.598;2024-02-16T06:44:02;7.90;;;3.15;;
51852;SDS011;37894;53.172;6.598;2024-02-16T06:46:31;7.55;;;3.10;;
51852;SDS011;37894;53.172;6.598;2024-02-16T06:48:57;6.13;;;3.08;;
51852;SDS011;37894;53.172;6.598;2024-02-16T06:51:23;6.22;;;2.78;;
51852;SDS011;37894;53.172;6.598;2024-02-16T06:53:49;5.45;;;2.88;;
51852;SDS011;37894;53.172;6.598;2024-02-16T06:56:16;8.88;;;3.38;;
51852;SDS011;37894;53.172;6.598;2024-02-16T06:58:43;5.70;;;2.70;;
51852;SDS011;37894;53.172;6.598;2024-02-16T07:01:09;5.22;;;3.10;;
51852;SDS011;37894;53.172;6.598;2024-02-16T07:03:35;8.43;;;3.50;;
51852;SDS011;37894;53.172;6.598;2024-02-16T07:06:02;6.70;;;2.92;;
51852;SDS011;37894;53.172;6.598;2024-02-16T07:08:28;5.57;;;3.03;;
51852;SDS011;37894;53.172;6.598;2024-02-16T07:10:54;12.32;;;3.03;;
51852;SDS011;37894;53.172;6.598;2024-02-16T07:13:22;9.57;;;3.05;;
51852;SDS011;37894;53.172;6.598;2024-02-16T07:15:47;7.25;;;3.55;;
51852;SDS011;37894;53.172;6.598;2024-02-16T07:18:14;18.67;;;3.30;;
51852;SDS011;37894;53.172;6.598;2024-02-16T07:20:40;7.47;;;3.55;;
51852;SDS011;37894;53.172;6.598;2024-02-16T07:23:06;6.00;;;3.13;;
51852;SDS011;37894;53.172;6.598;2024-02-16T07:25:34;8.07;;;4.13;;
51852;SDS011;37894;53.172;6.598;2024-02-16T07:28:00;8.90;;;3.28;;
51852;SDS011;37894;53.172;6.598;2024-02-16T07:30:26;8.07;;;3.35;;
51852;SDS011;37894;53.172;6.598;2024-02-16T07:32:53;12.40;;;3.17;;
51852;SDS011;37894;53.172;6.598;2024-02-16T07:35:19;11.90;;;3.65;;
51852;SDS011;37894;53.172;6.598;2024-02-16T07:37:46;6.22;;;2.97;;
51852;SDS011;37894;53.172;6.598;2024-02-16T07:40:13;10.13;;;3.47;;
51852;SDS011;37894;53.172;6.598;2024-02-16T07:42:39;5.22;;;3.25;;
51852;SDS011;37894;53.172;6.598;2024-02-16T07:45:07;5.40;;;2.95;;
51852;SDS011;37894;53.172;6.598;2024-02-16T07:47:34;6.68;;;3.50;;
51852;SDS011;37894;53.172;6.598;2024-02-16T07:50:01;7.45;;;3.35;;
51852;SDS011;37894;53.172;6.598;2024-02-16T07:52:28;5.35;;;2.90;;
51852;SDS011;37894;53.172;6.598;2024-02-16T07:54:54;10.30;;;3.90;;
51852;SDS011;37894;53.172;6.598;2024-02-16T07:57:20;5.82;;;3.45;;
51852;SDS011;37894;53.172;6.598;2024-02-16T07:59:46;5.05;;;3.25;;
51852;SDS011;37894;53.172;6.598;2024-02-16T08:02:12;6.57;;;3.30;;
51852;SDS011;37894;53.172;6.598;2024-02-16T08:04:41;6.68;;;3.25;;
51852;SDS011;37894;53.172;6.598;2024-02-16T08:07:07;7.95;;;3.30;;
51852;SDS011;37894;53.172;6.598;2024-02-16T08:09:34;8.88;;;3.80;;
51852;SDS011;37894;53.172;6.598;2024-02-16T08:12:00;9.70;;;3.45;;
51852;SDS011;37894;53.172;6.598;2024-02-16T08:14:30;6.28;;;3.33;;
51852;SDS011;37894;53.172;6.598;2024-02-16T08:16:57;5.18;;;3.60;;
51852;SDS011;37894;53.172;6.598;2024-02-16T08:19:23;7.88;;;3.70;;
51852;SDS011;37894;53.172;6.598;2024-02-16T08:21:56;9.23;;;3.60;;
51852;SDS011;37894;53.172;6.598;2024-02-16T08:24:22;5.80;;;3.58;;
51852;SDS011;37894;53.172;6.598;2024-02-16T08:26:48;12.15;;;4.15;;
51852;SDS011;37894;53.172;6.598;2024-02-16T08:29:13;5.93;;;3.47;;
51852;SDS011;37894;53.172;6.598;2024-02-16T08:31:39;5.78;;;3.25;;
51852;SDS011;37894;53.172;6.598;2024-02-16T08:34:05;13.73;;;3.80;;
51852;SDS011;37894;53.172;6.598;2024-02-16T08:36:32;7.93;;;3.65;;
51852;SDS011;37894;53.172;6.598;2024-02-16T08:38:59;7.18;;;3.85;;
51852;SDS011;37894;53.172;6.598;2024-02-16T08:41:24;7.93;;;3.80;;
51852;SDS011;37894;53.172;6.598;2024-02-16T08:43:50;8.35;;;3.92;;
51852;SDS011;37894;53.172;6.598;2024-02-16T08:46:16;8.02;;;4.22;;
51852;SDS011;37894;53.172;6.598;2024-02-16T08:48:44;7.57;;;3.85;;
51852;SDS011;37894;53.172;6.598;2024-02-16T08:51:10;8.63;;;3.58;;
51852;SDS011;37894;53.172;6.598;2024-02-16T08:53:36;6.68;;;3.97;;
51852;SDS011;37894;53.172;6.598;2024-02-16T08:56:02;7.45;;;4.03;;
51852;SDS011;37894;53.172;6.598;2024-02-16T08:58:28;7.35;;;3.50;;
51852;SDS011;37894;53.172;6.598;2024-02-16T09:00:55;7.32;;;4.43;;
51852;SDS011;37894;53.172;6.598;2024-02-16T09:03:21;7.65;;;3.80;;
51852;SDS011;37894;53.172;6.598;2024-02-16T09:05:49;6.88;;;3.40;;
51852;SDS011;37894;53.172;6.598;2024-02-16T09:08:15;7.43;;;3.63;;
51852;SDS011;37894;53.172;6.598;2024-02-16T09:10:41;9.75;;;4.20;;
51852;SDS011;37894;53.172;6.598;2024-02-16T09:13:07;15.70;;;4.53;;
51852;SDS011;37894;53.172;6.598;2024-02-16T09:15:34;7.35;;;3.80;;
51852;SDS011;37894;53.172;6.598;2024-02-16T09:18:02;10.07;;;3.63;;
51852;SDS011;37894;53.172;6.598;2024-02-16T09:20:28;8.27;;;3.63;;
51852;SDS011;37894;53.172;6.598;2024-02-16T09:22:54;9.02;;;4.03;;
51852;SDS011;37894;53.172;6.598;2024-02-16T09:25:20;8.98;;;3.88;;
51852;SDS011;37894;53.172;6.598;2024-02-16T09:27:46;8.55;;;3.58;;
51852;SDS011;37894;53.172;6.598;2024-02-16T09:30:12;10.90;;;4.75;;
51852;SDS011;37894;53.172;6.598;2024-02-16T09:32:39;8.38;;;4.22;;
51852;SDS011;37894;53.172;6.598;2024-02-16T09:35:05;9.77;;;4.35;;
51852;SDS011;37894;53.172;6.598;2024-02-16T09:37:31;7.65;;;4.25;;
51852;SDS011;37894;53.172;6.598;2024-02-16T09:39:57;8.05;;;3.95;;
51852;SDS011;37894;53.172;6.598;2024-02-16T09:42:23;8.75;;;5.20;;
51852;SDS011;37894;53.172;6.598;2024-02-16T09:44:51;9.07;;;3.90;;
51852;SDS011;37894;53.172;6.598;2024-02-16T09:47:19;8.10;;;3.95;;
51852;SDS011;37894;53.172;6.598;2024-02-16T09:49:50;7.88;;;4.25;;
51852;SDS011;37894;53.172;6.598;2024-02-16T09:52:15;7.47;;;4.32;;
51852;SDS011;37894;53.172;6.598;2024-02-16T09:54:41;10.20;;;4.20;;
51852;SDS011;37894;53.172;6.598;2024-02-16T09:57:07;11.45;;;5.07;;
51852;SDS011;37894;53.172;6.598;2024-02-16T09:59:33;10.13;;;4.40;;
51852;SDS011;37894;53.172;6.598;2024-02-16T10:02:03;6.82;;;4.35;;
51852;SDS011;37894;53.172;6.598;2024-02-16T10:04:32;8.73;;;4.53;;
51852;SDS011;37894;53.172;6.598;2024-02-16T10:06:58;11.43;;;4.18;;
51852;SDS011;37894;53.172;6.598;2024-02-16T10:09:28;7.43;;;3.88;;
51852;SDS011;37894;53.172;6.598;2024-02-16T10:11:57;8.77;;;4.57;;
51852;SDS011;37894;53.172;6.598;2024-02-16T10:14:23;8.55;;;4.28;;
51852;SDS011;37894;53.172;6.598;2024-02-16T10:17:02;9.52;;;4.60;;
51852;SDS011;37894;53.172;6.598;2024-02-16T10:19:30;11.32;;;4.97;;
51852;SDS011;37894;53.172;6.598;2024-02-16T10:22:10;21.15;;;4.80;;
51852;SDS011;37894;53.172;6.598;2024-02-16T10:24:36;10.85;;;5.57;;
51852;SDS011;37894;53.172;6.598;2024-02-16T10:27:04;8.63;;;4.65;;
51852;SDS011;37894;53.172;6.598;2024-02-16T10:29:31;11.13;;;5.20;;
51852;SDS011;37894;53.172;6.598;2024-02-16T10:31:59;20.25;;;5.85;;
51852;SDS011;37894;53.172;6.598;2024-02-16T10:34:25;8.95;;;5.15;;
51852;SDS011;37894;53.172;6.598;2024-02-16T10:36:51;9.30;;;5.57;;
51852;SDS011;37894;53.172;6.598;2024-02-16T10:39:17;11.27;;;5.90;;
51852;SDS011;37894;53.172;6.598;2024-02-16T10:41:44;11.02;;;5.40;;
51852;SDS011;37894;53.172;6.598;2024-02-16T10:44:10;10.40;;;6.10;;
51852;SDS011;37894;53.172;6.598;2024-02-16T10:46:37;12.82;;;5.75;;
51852;SDS011;37894;53.172;6.598;2024-02-16T10:49:03;8.73;;;5.43;;
51852;SDS011;37894;53.172;6.598;2024-02-16T10:51:34;11.15;;;6.32;;
51852;SDS011;37894;53.172;6.598;2024-02-16T10:54:11;11.18;;;6.35;;
51852;SDS011;37894;53.172;6.598;2024-02-16T10:56:43;8.35;;;5.57;;
51852;SDS011;37894;53.172;6.598;2024-02-16T10:59:09;9.73;;;5.95;;
51852;SDS011;37894;53.172;6.598;2024-02-16T11:01:39;11.25;;;6.97;;
51852;SDS011;37894;53.172;6.598;2024-02-16T11:04:06;12.65;;;7.35;;
51852;SDS011;37894;53.172;6.598;2024-02-16T11:09:38;11.05;;;7.78;;
51852;SDS011;37894;53.172;6.598;2024-02-16T11:12:05;16.08;;;8.25;;
51852;SDS011;37894;53.172;6.598;2024-02-16T11:14:43;14.43;;;8.45;;
51852;SDS011;37894;53.172;6.598;2024-02-16T11:17:11;13.85;;;8.40;;
51852;SDS011;37894;53.172;6.598;2024-02-16T11:19:41;16.33;;;8.50;;
51852;SDS011;37894;53.172;6.598;2024-02-16T11:22:08;16.23;;;9.45;;
51852;SDS011;37894;53.172;6.598;2024-02-16T11:24:36;19.40;;;10.73;;
51852;SDS011;37894;53.172;6.598;2024-02-16T11:27:07;18.70;;;10.80;;
51852;SDS011;37894;53.172;6.598;2024-02-16T11:29:37;18.42;;;11.32;;
51852;SDS011;37894;53.172;6.598;2024-02-16T11:32:07;19.60;;;11.98;;
51852;SDS011;37894;53.172;6.598;2024-02-16T11:34:33;25.70;;;13.02;;
51852;SDS011;37894;53.172;6.598;2024-02-16T11:36:59;24.40;;;12.15;;
51852;SDS011;37894;53.172;6.598;2024-02-16T11:39:30;21.95;;;13.60;;
51852;SDS011;37894;53.172;6.598;2024-02-16T11:42:03;24.33;;;13.38;;
51852;SDS011;37894;53.172;6.598;2024-02-16T11:44:33;25.88;;;12.95;;
51852;SDS011;37894;53.172;6.598;2024-02-16T11:47:01;22.70;;;11.93;;
51852;SDS011;37894;53.172;6.598;2024-02-16T11:49:31;22.63;;;11.07;;
51852;SDS011;37894;53.172;6.598;2024-02-16T11:51:59;20.85;;;11.52;;
51852;SDS011;37894;53.172;6.598;2024-02-16T11:54:25;19.50;;;10.15;;
51852;SDS011;37894;53.172;6.598;2024-02-16T11:56:51;25.63;;;11.82;;
51852;SDS011;37894;53.172;6.598;2024-02-16T11:59:18;17.50;;;10.68;;
51852;SDS011;37894;53.172;6.598;2024-02-16T12:01:48;16.40;;;9.55;;
51852;SDS011;37894;53.172;6.598;2024-02-16T12:04:22;16.17;;;9.23;;
51852;SDS011;37894;53.172;6.598;2024-02-16T12:07:01;19.23;;;9.98;;
51852;SDS011;37894;53.172;6.598;2024-02-16T12:09:27;16.58;;;9.63;;
51852;SDS011;37894;53.172;6.598;2024-02-16T12:11:54;16.27;;;9.40;;
51852;SDS011;37894;53.172;6.598;2024-02-16T12:14:24;13.75;;;8.25;;
51852;SDS011;37894;53.172;6.598;2024-02-16T12:16:50;14.20;;;8.63;;
51852;SDS011;37894;53.172;6.598;2024-02-16T12:19:22;14.35;;;8.98;;
51852;SDS011;37894;53.172;6.598;2024-02-16T12:21:49;13.80;;;7.75;;
51852;SDS011;37894;53.172;6.598;2024-02-16T12:24:18;15.65;;;8.23;;
51852;SDS011;37894;53.172;6.598;2024-02-16T12:26:45;16.90;;;8.18;;
51852;SDS011;37894;53.172;6.598;2024-02-16T12:29:11;16.02;;;8.60;;
51852;SDS011;37894;53.172;6.598;2024-02-16T12:31:41;13.38;;;7.75;;
51852;SDS011;37894;53.172;6.598;2024-02-16T12:34:08;13.13;;;7.60;;
51852;SDS011;37894;53.172;6.598;2024-02-16T12:36:34;12.70;;;7.80;;
51852;SDS011;37894;53.172;6.598;2024-02-16T12:39:01;11.48;;;7.05;;
51852;SDS011;37894;53.172;6.598;2024-02-16T12:41:29;15.73;;;7.00;;
51852;SDS011;37894;53.172;6.598;2024-02-16T12:43:58;12.85;;;6.60;;
51852;SDS011;37894;53.172;6.598;2024-02-16T12:46:24;11.57;;;6.80;;
51852;SDS011;37894;53.172;6.598;2024-02-16T12:48:51;10.43;;;6.00;;
51852;SDS011;37894;53.172;6.598;2024-02-16T12:51:18;9.80;;;6.13;;
51852;SDS011;37894;53.172;6.598;2024-02-16T12:53:44;10.07;;;5.80;;
51852;SDS011;37894;53.172;6.598;2024-02-16T12:56:10;11.68;;;6.00;;
51852;SDS011;37894;53.172;6.598;2024-02-16T12:58:36;11.07;;;5.85;;
51852;SDS011;37894;53.172;6.598;2024-02-16T13:01:03;11.80;;;6.22;;
51852;SDS011;37894;53.172;6.598;2024-02-16T13:03:35;9.85;;;5.20;;
51852;SDS011;37894;53.172;6.598;2024-02-16T13:06:03;9.48;;;5.68;;
51852;SDS011;37894;53.172;6.598;2024-02-16T13:08:29;12.85;;;5.85;;
51852;SDS011;37894;53.172;6.598;2024-02-16T13:10:58;9.98;;;4.88;;
51852;SDS011;37894;53.172;6.598;2024-02-16T13:13:24;12.27;;;4.95;;
51852;SDS011;37894;53.172;6.598;2024-02-16T13:15:50;7.72;;;4.97;;
51852;SDS011;37894;53.172;6.598;2024-02-16T13:18:16;9.95;;;4.65;;
51852;SDS011;37894;53.172;6.598;2024-02-16T13:20:43;9.13;;;5.05;;
51852;SDS011;37894;53.172;6.598;2024-02-16T13:23:09;8.55;;;4.55;;
51852;SDS011;37894;53.172;6.598;2024-02-16T13:25:35;7.35;;;4.32;;
51852;SDS011;37894;53.172;6.598;2024-02-16T13:28:02;7.00;;;4.57;;
51852;SDS011;37894;53.172;6.598;2024-02-16T13:30:28;8.25;;;4.53;;
51852;SDS011;37894;53.172;6.598;2024-02-16T13:32:54;7.65;;;3.90;;
51852;SDS011;37894;53.172;6.598;2024-02-16T13:35:20;7.72;;;4.13;;
51852;SDS011;37894;53.172;6.598;2024-02-16T13:37:46;8.80;;;3.95;;
51852;SDS011;37894;53.172;6.598;2024-02-16T13:40:12;6.75;;;4.15;;
51852;SDS011;37894;53.172;6.598;2024-02-16T13:42:39;5.55;;;4.00;;
51852;SDS011;37894;53.172;6.598;2024-02-16T13:45:05;5.85;;;3.90;;
51852;SDS011;37894;53.172;6.598;2024-02-16T13:47:32;4.60;;;3.10;;
51852;SDS011;37894;53.172;6.598;2024-02-16T13:49:58;6.20;;;3.42;;
51852;SDS011;37894;53.172;6.598;2024-02-16T13:52:25;5.05;;;3.30;;
51852;SDS011;37894;53.172;6.598;2024-02-16T13:54:51;5.90;;;3.03;;
51852;SDS011;37894;53.172;6.598;2024-02-16T13:57:17;6.88;;;4.03;;
51852;SDS011;37894;53.172;6.598;2024-02-16T13:59:44;6.97;;;3.40;;
51852;SDS011;37894;53.172;6.598;2024-02-16T14:02:10;5.35;;;3.28;;
51852;SDS011;37894;53.172;6.598;2024-02-16T14:04:37;6.43;;;3.55;;
51852;SDS011;37894;53.172;6.598;2024-02-16T14:07:04;7.03;;;4.00;;
51852;SDS011;37894;53.172;6.598;2024-02-16T14:09:30;6.53;;;3.80;;
51852;SDS011;37894;53.172;6.598;2024-02-16T14:11:56;6.05;;;3.78;;
51852;SDS011;37894;53.172;6.598;2024-02-16T14:14:27;7.72;;;3.88;;
51852;SDS011;37894;53.172;6.598;2024-02-16T14:16:53;7.13;;;4.20;;
51852;SDS011;37894;53.172;6.598;2024-02-16T14:19:19;6.18;;;3.80;;
51852;SDS011;37894;53.172;6.598;2024-02-16T14:21:45;6.18;;;3.88;;
51852;SDS011;37894;53.172;6.598;2024-02-16T14:24:12;7.57;;;3.97;;
51852;SDS011;37894;53.172;6.598;2024-02-16T14:26:38;7.22;;;3.60;;
51852;SDS011;37894;53.172;6.598;2024-02-16T14:29:05;6.53;;;3.22;;
51852;SDS011;37894;53.172;6.598;2024-02-16T14:31:31;5.97;;;3.60;;
51852;SDS011;37894;53.172;6.598;2024-02-16T14:33:58;7.55;;;3.47;;
51852;SDS011;37894;53.172;6.598;2024-02-16T14:36:24;7.82;;;3.58;;
51852;SDS011;37894;53.172;6.598;2024-02-16T14:38:50;4.53;;;3.00;;
51852;SDS011;37894;53.172;6.598;2024-02-16T14:41:16;5.97;;;3.25;;
51852;SDS011;37894;53.172;6.598;2024-02-16T14:43:42;5.68;;;3.05;;